Archival Weather

Chicago O'Hare International

Chicago, Illinois (KORD)

Report from: Thursday, June 23, 2022 4:51 AM CDT
Current time: Sunday, June 26, 2022 11:40 AM CDT

Current weather
Weather history
Weather forecast

Temperature18.3°C (64.9°F)
Dew point12.8°C (55.0°F)
Winds 6 kts (3.1 m/s, 6.9 mph) North-Northeast (20°)
Visibility10 mi. (16.1 km)
Clouds Few clouds 25,000 ft. (7,620 m)
Altimeter30.05 in.Hg (1018 mB)
Relative humidity70 %
Density altitude447 ft. (136 m)
Sea-level pressure101.7 kPa (1017 mB, 30.03 in.Hg)
Remarks Automated weather observing station with precipitation discriminator
Flight conditions Visual Meteorological Conditions
Raw dataKORD 230951Z 02006KT 10SM FEW250 18/13 A3005 RMK AO2 SLP170 T01830128
An error has occurred. This application may no longer respond until reloaded. Reload 🗙